West Olive, MI (49460)

5:44 AM EDT on March 25, 2017 (GMT -0400)
Sheldon Dunes | | Change Station

Elev 646 ft 42.94 °N, 86.21 °W | Updated 1 minute ago

Overcast
Overcast
40.5 °F
Feels Like 39 °F
N
3.1
Wind Variable Wind from NE
Gusts 5.4 mph

Today
High -- | Low -- °F
--% Chance of Precip.
Yesterday
High -- | Low -- °F
Precip. -- in
Pressure 30.01 in
Visibility 10.0 miles
Clouds Overcast 1200 ft
Windchill 39 °F
Dew Point 35 °F
Humidity 82%
Rainfall 0.00 in
Snow Depth Not available.
7:38 AM 8:03 PM
Waning Crescent, 9% visible
METAR KBIV 250853Z AUTO 07009KT 10SM -RA OVC012 06/03 A3006 RMK AO2 SLP161 P0001 60001 T00560028 58004
Pressure 30.01 in
Visibility 10.0 miles
Clouds Overcast 1200 ft
Windchill 39 °F
Dew Point 35 °F
Humidity 82%
Rainfall 0.00 in
Snow Depth Not available.
7:38 AM 8:03 PM
Waning Crescent, 9% visible
METAR KBIV 250853Z AUTO 07009KT 10SM -RA OVC012 06/03 A3006 RMK AO2 SLP161 P0001 60001 T00560028 58004

Get Severe Weather Alerts

Thanks for signing up!

Be on the lookout for a verification email in your inbox.

You'll start receiving the daily forecast at 8 AM.

×

10-Day Weather Forecast

Almanac

Astronomy

Mar. 25, 2017 Rise Set
Actual Time
Civil Twilight
Nautical Twilight
Astronomical Twilight
Moon
Length of Visible Light
Length of Day
Tomorrow will be .
, % of the Moon is Illuminated

Today's Extremes

State Highs State Lows

Community

WunderPhotos

Upload Photos

1,962,540 photos uploaded!

WunderBlog® & News

Nearby

Air Quality

  Air Quality AQ Index Pollutant
Not available.

Snow Depth

Station Depth Elevation

Earthquake Activity

City Distance Mag. Time & Date
Minimum magnitude displayed is 2.5.

Earthquake Activity

City Distance Mag. Time & Date
Minimum magnitude displayed is 2.5.

Coastal Water Temperatures

Place Temperature

Stations

Nearby Weather Stations

Station Location Temp. Windchill Dew Point Humidity Wind Precip. Elev Updated Type
                   

Watches & Warnings

There are currently no watches in effect.